sensor_id;sensor_type;location;lat;lon;timestamp;pressure;altitude;pressure_sealevel;temperature;humidity
76074;BME280;64776;42.636;24.358;2023-04-24T00:01:30;90020.91;;;2.56;82.97
76074;BME280;64776;42.636;24.358;2023-04-24T00:04:31;90023.84;;;2.58;82.85
76074;BME280;64776;42.636;24.358;2023-04-24T00:07:32;90022.47;;;2.54;83.31
76074;BME280;64776;42.636;24.358;2023-04-24T00:10:34;90013.00;;;2.56;83.17
76074;BME280;64776;42.636;24.358;2023-04-24T00:13:35;90008.03;;;2.58;83.14
76074;BME280;64776;42.636;24.358;2023-04-24T00:16:36;90014.19;;;2.55;83.09
76074;BME280;64776;42.636;24.358;2023-04-24T00:19:37;90008.66;;;2.62;83.16
76074;BME280;64776;42.636;24.358;2023-04-24T00:22:38;90011.59;;;2.64;83.67
76074;BME280;64776;42.636;24.358;2023-04-24T00:25:40;90010.69;;;2.58;83.15
76074;BME280;64776;42.636;24.358;2023-04-24T00:28:40;90004.56;;;2.61;83.19
76074;BME280;64776;42.636;24.358;2023-04-24T00:31:41;90006.59;;;2.57;82.93
76074;BME280;64776;42.636;24.358;2023-04-24T00:34:42;90006.78;;;2.50;83.06
76074;BME280;64776;42.636;24.358;2023-04-24T00:37:43;90008.50;;;2.44;83.12
76074;BME280;64776;42.636;24.358;2023-04-24T00:40:45;89997.53;;;2.45;82.92
76074;BME280;64776;42.636;24.358;2023-04-24T00:43:46;89983.66;;;2.45;83.25
76074;BME280;64776;42.636;24.358;2023-04-24T00:46:47;89988.38;;;2.50;83.08
76074;BME280;64776;42.636;24.358;2023-04-24T00:49:49;89985.44;;;2.48;83.25
76074;BME280;64776;42.636;24.358;2023-04-24T00:52:49;89980.09;;;2.39;83.04
76074;BME280;64776;42.636;24.358;2023-04-24T00:55:52;89979.44;;;2.35;83.34
76074;BME280;64776;42.636;24.358;2023-04-24T00:58:53;89974.81;;;2.39;83.38
76074;BME280;64776;42.636;24.358;2023-04-24T01:01:55;89983.75;;;2.41;82.86
76074;BME280;64776;42.636;24.358;2023-04-24T01:04:56;89979.84;;;2.46;83.12
76074;BME280;64776;42.636;24.358;2023-04-24T01:07:58;89969.00;;;2.44;83.25
76074;BME280;64776;42.636;24.358;2023-04-24T01:11:03;89968.69;;;2.42;83.54
76074;BME280;64776;42.636;24.358;2023-04-24T01:14:04;89974.91;;;2.35;83.21
76074;BME280;64776;42.636;24.358;2023-04-24T01:17:05;89978.19;;;2.27;83.40
76074;BME280;64776;42.636;24.358;2023-04-24T01:20:06;89975.25;;;2.12;83.73
76074;BME280;64776;42.636;24.358;2023-04-24T01:23:09;89975.81;;;2.07;84.30
76074;BME280;64776;42.636;24.358;2023-04-24T01:26:09;89979.50;;;2.10;83.80
76074;BME280;64776;42.636;24.358;2023-04-24T01:29:12;89978.88;;;2.06;84.35
76074;BME280;64776;42.636;24.358;2023-04-24T01:32:13;89979.38;;;2.13;84.25
76074;BME280;64776;42.636;24.358;2023-04-24T01:35:14;89967.91;;;2.20;84.01
76074;BME280;64776;42.636;24.358;2023-04-24T01:38:16;89964.78;;;2.00;84.64
76074;BME280;64776;42.636;24.358;2023-04-24T01:41:17;89967.09;;;1.98;84.93
76074;BME280;64776;42.636;24.358;2023-04-24T01:44:19;89967.38;;;2.12;84.51
76074;BME280;64776;42.636;24.358;2023-04-24T01:47:20;89972.13;;;2.05;85.12
76074;BME280;64776;42.636;24.358;2023-04-24T01:50:21;89956.56;;;1.98;85.89
76074;BME280;64776;42.636;24.358;2023-04-24T01:53:23;89955.28;;;2.02;85.73
76074;BME280;64776;42.636;24.358;2023-04-24T01:56:24;89946.03;;;1.98;85.93
76074;BME280;64776;42.636;24.358;2023-04-24T01:59:27;89947.50;;;1.99;86.44
76074;BME280;64776;42.636;24.358;2023-04-24T02:02:28;89948.25;;;1.99;87.11
76074;BME280;64776;42.636;24.358;2023-04-24T02:05:29;89948.22;;;2.12;86.31
76074;BME280;64776;42.636;24.358;2023-04-24T02:08:32;89944.53;;;2.22;85.96
76074;BME280;64776;42.636;24.358;2023-04-24T02:11:33;89943.97;;;2.27;85.51
76074;BME280;64776;42.636;24.358;2023-04-24T02:14:58;89932.63;;;2.30;84.95
76074;BME280;64776;42.636;24.358;2023-04-24T02:17:59;89936.00;;;2.30;85.03
76074;BME280;64776;42.636;24.358;2023-04-24T02:21:00;89928.91;;;2.40;84.94
76074;BME280;64776;42.636;24.358;2023-04-24T02:24:02;89926.78;;;2.35;84.64
76074;BME280;64776;42.636;24.358;2023-04-24T02:27:03;89928.03;;;2.09;85.36
76074;BME280;64776;42.636;24.358;2023-04-24T02:30:05;89920.28;;;2.27;84.84
76074;BME280;64776;42.636;24.358;2023-04-24T02:33:06;89915.25;;;2.32;84.68
76074;BME280;64776;42.636;24.358;2023-04-24T02:36:07;89920.91;;;2.31;84.71
76074;BME280;64776;42.636;24.358;2023-04-24T02:39:09;89922.16;;;2.39;84.51
76074;BME280;64776;42.636;24.358;2023-04-24T02:42:10;89918.06;;;2.38;83.89
76074;BME280;64776;42.636;24.358;2023-04-24T02:45:11;89918.59;;;2.33;84.65
76074;BME280;64776;42.636;24.358;2023-04-24T02:48:11;89914.72;;;2.25;84.31
76074;BME280;64776;42.636;24.358;2023-04-24T02:51:12;89917.19;;;2.07;85.04
76074;BME280;64776;42.636;24.358;2023-04-24T02:54:14;89908.75;;;2.12;84.77
76074;BME280;64776;42.636;24.358;2023-04-24T02:57:15;89905.06;;;2.09;84.75
76074;BME280;64776;42.636;24.358;2023-04-24T03:00:16;89915.72;;;2.06;84.95
76074;BME280;64776;42.636;24.358;2023-04-24T03:03:17;89919.50;;;2.05;85.05
76074;BME280;64776;42.636;24.358;2023-04-24T03:06:18;89910.66;;;2.11;84.49
76074;BME280;64776;42.636;24.358;2023-04-24T03:09:20;89907.28;;;2.11;84.51
76074;BME280;64776;42.636;24.358;2023-04-24T03:12:21;89918.03;;;2.04;84.77
76074;BME280;64776;42.636;24.358;2023-04-24T03:15:22;89922.44;;;2.07;84.69
76074;BME280;64776;42.636;24.358;2023-04-24T03:18:23;89915.81;;;2.02;84.69
76074;BME280;64776;42.636;24.358;2023-04-24T03:21:23;89918.25;;;1.97;84.83
76074;BME280;64776;42.636;24.358;2023-04-24T03:24:26;89917.63;;;1.93;85.06
76074;BME280;64776;42.636;24.358;2023-04-24T03:27:27;89925.09;;;1.94;84.48
76074;BME280;64776;42.636;24.358;2023-04-24T03:30:28;89917.13;;;1.85;84.93
76074;BME280;64776;42.636;24.358;2023-04-24T03:33:28;89916.81;;;1.83;84.65
76074;BME280;64776;42.636;24.358;2023-04-24T03:36:29;89922.06;;;1.83;85.15
76074;BME280;64776;42.636;24.358;2023-04-24T03:39:31;89919.44;;;1.83;84.95
76074;BME280;64776;42.636;24.358;2023-04-24T03:42:32;89931.84;;;1.83;84.72
76074;BME280;64776;42.636;24.358;2023-04-24T03:45:33;89930.47;;;1.78;85.41
76074;BME280;64776;42.636;24.358;2023-04-24T03:48:35;89935.44;;;1.76;85.52
76074;BME280;64776;42.636;24.358;2023-04-24T03:51:36;89928.72;;;1.75;85.78
76074;BME280;64776;42.636;24.358;2023-04-24T03:54:38;89928.91;;;1.55;86.73
76074;BME280;64776;42.636;24.358;2023-04-24T03:57:39;89939.84;;;1.41;87.73
76074;BME280;64776;42.636;24.358;2023-04-24T04:00:40;89929.75;;;1.65;87.10
76074;BME280;64776;42.636;24.358;2023-04-24T04:03:41;89932.34;;;1.90;86.86
76074;BME280;64776;42.636;24.358;2023-04-24T04:06:42;89932.47;;;1.87;87.08
76074;BME280;64776;42.636;24.358;2023-04-24T04:09:44;89927.19;;;1.99;86.67
76074;BME280;64776;42.636;24.358;2023-04-24T04:12:45;89930.03;;;2.05;86.46
76074;BME280;64776;42.636;24.358;2023-04-24T04:15:46;89925.16;;;2.16;86.37
76074;BME280;64776;42.636;24.358;2023-04-24T04:18:47;89931.69;;;2.24;86.24
76074;BME280;64776;42.636;24.358;2023-04-24T04:21:48;89933.88;;;2.25;85.63
76074;BME280;64776;42.636;24.358;2023-04-24T04:24:50;89934.84;;;2.06;86.88
76074;BME280;64776;42.636;24.358;2023-04-24T04:27:50;89931.56;;;2.27;86.28
76074;BME280;64776;42.636;24.358;2023-04-24T04:30:51;89932.59;;;2.42;85.89
76074;BME280;64776;42.636;24.358;2023-04-24T04:33:52;89930.97;;;2.58;85.58
76074;BME280;64776;42.636;24.358;2023-04-24T04:36:53;89931.03;;;2.67;85.51
76074;BME280;64776;42.636;24.358;2023-04-24T04:39:56;89937.38;;;2.78;85.30
76074;BME280;64776;42.636;24.358;2023-04-24T04:42:56;89935.00;;;2.93;85.22
76074;BME280;64776;42.636;24.358;2023-04-24T04:45:58;89932.31;;;3.05;85.56
76074;BME280;64776;42.636;24.358;2023-04-24T04:48:59;89925.94;;;3.15;85.31
76074;BME280;64776;42.636;24.358;2023-04-24T04:51:59;89926.00;;;3.24;84.69
76074;BME280;64776;42.636;24.358;2023-04-24T04:55:03;89926.66;;;3.38;84.65
76074;BME280;64776;42.636;24.358;2023-04-24T04:58:04;89926.00;;;3.55;85.09
76074;BME280;64776;42.636;24.358;2023-04-24T05:01:06;89923.03;;;3.75;84.88
76074;BME280;64776;42.636;24.358;2023-04-24T05:04:07;89928.38;;;4.02;84.91
76074;BME280;64776;42.636;24.358;2023-04-24T05:07:12;89931.38;;;4.22;83.55
76074;BME280;64776;42.636;24.358;2023-04-24T05:10:14;89927.31;;;4.48;84.17
76074;BME280;64776;42.636;24.358;2023-04-24T05:13:15;89920.44;;;4.69;83.05
76074;BME280;64776;42.636;24.358;2023-04-24T05:16:16;89916.47;;;4.91;83.10
76074;BME280;64776;42.636;24.358;2023-04-24T05:19:16;89915.88;;;5.06;81.61
76074;BME280;64776;42.636;24.358;2023-04-24T05:22:17;89908.06;;;5.20;81.51
76074;BME280;64776;42.636;24.358;2023-04-24T05:25:19;89909.63;;;5.36;81.08
76074;BME280;64776;42.636;24.358;2023-04-24T05:28:20;89908.88;;;5.44;81.53
76074;BME280;64776;42.636;24.358;2023-04-24T05:31:21;89904.00;;;5.61;80.78
76074;BME280;64776;42.636;24.358;2023-04-24T05:34:22;89909.28;;;5.70;80.16
76074;BME280;64776;42.636;24.358;2023-04-24T05:37:25;89904.53;;;5.83;80.06
76074;BME280;64776;42.636;24.358;2023-04-24T05:40:27;89895.22;;;5.97;80.52
76074;BME280;64776;42.636;24.358;2023-04-24T05:43:28;89901.81;;;6.01;79.75
76074;BME280;64776;42.636;24.358;2023-04-24T05:46:29;89907.03;;;6.19;80.55
76074;BME280;64776;42.636;24.358;2023-04-24T05:49:29;89901.97;;;6.30;80.00
76074;BME280;64776;42.636;24.358;2023-04-24T05:52:30;89899.09;;;6.43;80.05
76074;BME280;64776;42.636;24.358;2023-04-24T05:55:32;89906.31;;;6.66;79.49
76074;BME280;64776;42.636;24.358;2023-04-24T05:58:33;89896.59;;;6.87;79.09
76074;BME280;64776;42.636;24.358;2023-04-24T06:01:39;89885.00;;;6.99;78.87
76074;BME280;64776;42.636;24.358;2023-04-24T06:04:40;89882.00;;;7.20;77.85
76074;BME280;64776;42.636;24.358;2023-04-24T06:07:40;89887.59;;;7.37;77.17
76074;BME280;64776;42.636;24.358;2023-04-24T06:10:43;89883.41;;;7.60;77.22
76074;BME280;64776;42.636;24.358;2023-04-24T06:13:43;89880.06;;;7.79;77.52
76074;BME280;64776;42.636;24.358;2023-04-24T06:16:44;89884.94;;;7.95;77.23
76074;BME280;64776;42.636;24.358;2023-04-24T06:19:45;89872.97;;;8.20;76.35
76074;BME280;64776;42.636;24.358;2023-04-24T06:22:46;89874.13;;;8.34;75.51
76074;BME280;64776;42.636;24.358;2023-04-24T06:25:48;89878.13;;;8.44;75.06
76074;BME280;64776;42.636;24.358;2023-04-24T06:28:49;89882.28;;;8.65;75.53
76074;BME280;64776;42.636;24.358;2023-04-24T06:31:50;89887.44;;;8.74;73.04
76074;BME280;64776;42.636;24.358;2023-04-24T06:34:51;89883.06;;;8.91;72.27
76074;BME280;64776;42.636;24.358;2023-04-24T06:37:52;89888.03;;;9.03;71.70
76074;BME280;64776;42.636;24.358;2023-04-24T06:40:54;89889.66;;;9.21;72.22
76074;BME280;64776;42.636;24.358;2023-04-24T06:43:55;89882.59;;;9.38;72.06
76074;BME280;64776;42.636;24.358;2023-04-24T06:46:55;89882.91;;;9.46;71.65
76074;BME280;64776;42.636;24.358;2023-04-24T06:49:57;89876.28;;;9.61;69.89
76074;BME280;64776;42.636;24.358;2023-04-24T06:52:58;89880.28;;;9.77;70.47
76074;BME280;64776;42.636;24.358;2023-04-24T06:56:00;89882.81;;;9.92;68.87
76074;BME280;64776;42.636;24.358;2023-04-24T06:59:07;89882.16;;;10.02;68.72
76074;BME280;64776;42.636;24.358;2023-04-24T07:02:08;89889.38;;;10.22;67.69
76074;BME280;64776;42.636;24.358;2023-04-24T07:05:09;89880.53;;;10.47;68.53
76074;BME280;64776;42.636;24.358;2023-04-24T07:08:09;89884.97;;;10.55;68.14
76074;BME280;64776;42.636;24.358;2023-04-24T07:11:11;89879.53;;;10.81;66.05
76074;BME280;64776;42.636;24.358;2023-04-24T07:14:13;89875.78;;;11.15;65.56
76074;BME280;64776;42.636;24.358;2023-04-24T07:17:14;89875.31;;;11.22;63.64
76074;BME280;64776;42.636;24.358;2023-04-24T07:20:14;89873.16;;;11.32;63.28
76074;BME280;64776;42.636;24.358;2023-04-24T07:23:15;89876.81;;;11.34;63.59
76074;BME280;64776;42.636;24.358;2023-04-24T07:26:18;89875.38;;;11.44;62.14
76074;BME280;64776;42.636;24.358;2023-04-24T07:29:19;89873.22;;;11.60;62.12
76074;BME280;64776;42.636;24.358;2023-04-24T07:32:19;89873.75;;;11.75;61.84
76074;BME280;64776;42.636;24.358;2023-04-24T07:35:20;89869.63;;;11.90;60.58
76074;BME280;64776;42.636;24.358;2023-04-24T07:38:21;89871.56;;;11.90;61.58
76074;BME280;64776;42.636;24.358;2023-04-24T07:41:24;89874.25;;;12.06;60.46
76074;BME280;64776;42.636;24.358;2023-04-24T07:44:24;89867.19;;;12.20;60.81
76074;BME280;64776;42.636;24.358;2023-04-24T07:47:25;89880.31;;;12.35;59.95
76074;BME280;64776;42.636;24.358;2023-04-24T07:50:26;89881.28;;;12.43;58.33
76074;BME280;64776;42.636;24.358;2023-04-24T07:53:27;89878.13;;;12.44;57.50
76074;BME280;64776;42.636;24.358;2023-04-24T07:56:29;89879.84;;;12.36;59.20
76074;BME280;64776;42.636;24.358;2023-04-24T07:59:30;89882.75;;;12.27;58.33
76074;BME280;64776;42.636;24.358;2023-04-24T08:02:31;89878.34;;;12.41;60.54
76074;BME280;64776;42.636;24.358;2023-04-24T08:05:32;89884.94;;;12.45;59.31
76074;BME280;64776;42.636;24.358;2023-04-24T08:08:33;89889.28;;;12.54;58.81
76074;BME280;64776;42.636;24.358;2023-04-24T08:11:35;89881.25;;;12.65;58.21
76074;BME280;64776;42.636;24.358;2023-04-24T08:14:36;89875.84;;;12.87;58.92
76074;BME280;64776;42.636;24.358;2023-04-24T08:17:37;89880.94;;;12.90;58.88
76074;BME280;64776;42.636;24.358;2023-04-24T08:20:38;89875.06;;;13.08;59.34
76074;BME280;64776;42.636;24.358;2023-04-24T08:23:38;89874.22;;;13.41;59.18
76074;BME280;64776;42.636;24.358;2023-04-24T08:26:42;89861.56;;;13.77;57.74
76074;BME280;64776;42.636;24.358;2023-04-24T08:29:43;89863.56;;;13.71;55.59
76074;BME280;64776;42.636;24.358;2023-04-24T08:32:44;89864.41;;;13.90;55.39
76074;BME280;64776;42.636;24.358;2023-04-24T08:35:45;89868.75;;;13.93;56.01
76074;BME280;64776;42.636;24.358;2023-04-24T08:38:46;89860.25;;;13.89;55.40
76074;BME280;64776;42.636;24.358;2023-04-24T08:41:48;89855.13;;;13.91;55.42
76074;BME280;64776;42.636;24.358;2023-04-24T08:44:49;89852.19;;;14.24;54.78
76074;BME280;64776;42.636;24.358;2023-04-24T08:47:52;89849.00;;;14.61;56.08
76074;BME280;64776;42.636;24.358;2023-04-24T08:50:53;89840.97;;;14.80;53.76
76074;BME280;64776;42.636;24.358;2023-04-24T08:53:54;89837.75;;;15.05;53.87
76074;BME280;64776;42.636;24.358;2023-04-24T08:56:59;89841.78;;;15.36;53.01
76074;BME280;64776;42.636;24.358;2023-04-24T09:00:01;89838.53;;;15.24;53.06
76074;BME280;64776;42.636;24.358;2023-04-24T09:03:04;89839.81;;;15.18;53.08
76074;BME280;64776;42.636;24.358;2023-04-24T09:06:08;89841.34;;;15.32;52.34
76074;BME280;64776;42.636;24.358;2023-04-24T09:09:13;89822.56;;;15.69;52.29
76074;BME280;64776;42.636;24.358;2023-04-24T09:12:15;89828.50;;;15.62;52.23
76074;BME280;64776;42.636;24.358;2023-04-24T09:15:16;89836.41;;;15.36;52.21
76074;BME280;64776;42.636;24.358;2023-04-24T09:18:17;89830.66;;;15.08;53.41
76074;BME280;64776;42.636;24.358;2023-04-24T09:21:20;89840.25;;;14.79;54.06
76074;BME280;64776;42.636;24.358;2023-04-24T09:24:22;89842.88;;;14.60;54.72
76074;BME280;64776;42.636;24.358;2023-04-24T09:27:24;89840.41;;;14.62;54.38
76074;BME280;64776;42.636;24.358;2023-04-24T09:30:25;89846.34;;;14.55;55.03
76074;BME280;64776;42.636;24.358;2023-04-24T09:33:27;89842.00;;;14.47;55.04
76074;BME280;64776;42.636;24.358;2023-04-24T09:36:29;89850.19;;;14.36;56.34
76074;BME280;64776;42.636;24.358;2023-04-24T09:39:30;89845.53;;;14.36;57.57
76074;BME280;64776;42.636;24.358;2023-04-24T09:42:32;89845.28;;;14.40;56.97
76074;BME280;64776;42.636;24.358;2023-04-24T09:45:36;89838.63;;;14.71;58.31
76074;BME280;64776;42.636;24.358;2023-04-24T09:48:37;89841.06;;;14.93;57.34
76074;BME280;64776;42.636;24.358;2023-04-24T09:51:38;89842.22;;;14.79;57.24
76074;BME280;64776;42.636;24.358;2023-04-24T09:54:39;89831.09;;;15.12;57.25
76074;BME280;64776;42.636;24.358;2023-04-24T09:57:55;89827.56;;;15.22;55.81
76074;BME280;64776;42.636;24.358;2023-04-24T10:00:56;89818.97;;;15.24;55.86
76074;BME280;64776;42.636;24.358;2023-04-24T10:03:57;89823.47;;;15.16;54.59
76074;BME280;64776;42.636;24.358;2023-04-24T10:06:58;89808.47;;;15.44;55.45
76074;BME280;64776;42.636;24.358;2023-04-24T10:09:59;89812.09;;;15.47;54.02
76074;BME280;64776;42.636;24.358;2023-04-24T10:13:01;89810.78;;;15.35;53.59
76074;BME280;64776;42.636;24.358;2023-04-24T10:16:03;89810.44;;;15.44;52.80
76074;BME280;64776;42.636;24.358;2023-04-24T10:19:04;89797.16;;;15.52;52.93
76074;BME280;64776;42.636;24.358;2023-04-24T10:22:06;89801.78;;;15.51;53.83
76074;BME280;64776;42.636;24.358;2023-04-24T10:25:07;89800.09;;;15.48;53.06
76074;BME280;64776;42.636;24.358;2023-04-24T10:28:11;89801.19;;;15.58;51.79
76074;BME280;64776;42.636;24.358;2023-04-24T10:31:13;89793.19;;;15.71;52.41
76074;BME280;64776;42.636;24.358;2023-04-24T10:34:15;89787.31;;;16.04;51.94
76074;BME280;64776;42.636;24.358;2023-04-24T10:37:17;89785.91;;;16.29;51.05
76074;BME280;64776;42.636;24.358;2023-04-24T10:40:19;89789.47;;;16.51;50.17
76074;BME280;64776;42.636;24.358;2023-04-24T10:43:27;89791.22;;;16.48;49.28
76074;BME280;64776;42.636;24.358;2023-04-24T10:46:28;89788.50;;;16.35;48.94
76074;BME280;64776;42.636;24.358;2023-04-24T10:49:29;89798.13;;;16.17;50.99
76074;BME280;64776;42.636;24.358;2023-04-24T10:52:44;89791.47;;;16.18;51.29
76074;BME280;64776;42.636;24.358;2023-04-24T10:55:47;89788.03;;;16.05;52.67
76074;BME280;64776;42.636;24.358;2023-04-24T10:58:53;89782.50;;;15.97;52.15
76074;BME280;64776;42.636;24.358;2023-04-24T11:01:54;89784.31;;;16.08;54.40
76074;BME280;64776;42.636;24.358;2023-04-24T11:04:56;89789.41;;;16.24;52.51
76074;BME280;64776;42.636;24.358;2023-04-24T11:08:13;89794.09;;;15.92;54.10
76074;BME280;64776;42.636;24.358;2023-04-24T11:11:15;89789.84;;;15.65;54.23
76074;BME280;64776;42.636;24.358;2023-04-24T11:14:18;89788.84;;;15.31;55.51
76074;BME280;64776;42.636;24.358;2023-04-24T11:17:30;89791.22;;;15.16;56.30
76074;BME280;64776;42.636;24.358;2023-04-24T11:20:31;89788.88;;;15.07;57.32
76074;BME280;64776;42.636;24.358;2023-04-24T11:23:36;89790.94;;;14.77;56.94
76074;BME280;64776;42.636;24.358;2023-04-24T11:26:36;89786.66;;;14.68;58.62
76074;BME280;64776;42.636;24.358;2023-04-24T11:29:41;89788.19;;;14.82;58.18
76074;BME280;64776;42.636;24.358;2023-04-24T11:32:42;89785.50;;;15.25;59.09
76074;BME280;64776;42.636;24.358;2023-04-24T11:35:43;89783.03;;;15.27;58.04
76074;BME280;64776;42.636;24.358;2023-04-24T11:38:44;89784.97;;;15.26;57.81
76074;BME280;64776;42.636;24.358;2023-04-24T11:45:49;89766.22;;;15.58;58.00
76074;BME280;64776;42.636;24.358;2023-04-24T11:48:58;89768.25;;;15.71;56.39
76074;BME280;64776;42.636;24.358;2023-04-24T11:52:00;89761.66;;;15.53;56.60
76074;BME280;64776;42.636;24.358;2023-04-24T11:55:00;89757.31;;;15.50;56.44
76074;BME280;64776;42.636;24.358;2023-04-24T11:58:01;89761.34;;;15.38;55.49
76074;BME280;64776;42.636;24.358;2023-04-24T12:01:04;89748.31;;;15.48;55.27
76074;BME280;64776;42.636;24.358;2023-04-24T12:04:05;89748.00;;;14.95;57.26
76074;BME280;64776;42.636;24.358;2023-04-24T12:07:05;89744.00;;;15.02;57.31
76074;BME280;64776;42.636;24.358;2023-04-24T12:10:07;89742.75;;;14.84;57.32
76074;BME280;64776;42.636;24.358;2023-04-24T12:13:09;89745.81;;;14.94;57.38
76074;BME280;64776;42.636;24.358;2023-04-24T12:16:11;89727.94;;;14.96;55.96
76074;BME280;64776;42.636;24.358;2023-04-24T12:19:18;89726.22;;;14.99;57.23
76074;BME280;64776;42.636;24.358;2023-04-24T12:22:18;89730.28;;;14.87;57.65
76074;BME280;64776;42.636;24.358;2023-04-24T12:25:20;89726.63;;;14.84;57.54
76074;BME280;64776;42.636;24.358;2023-04-24T12:28:21;89712.94;;;14.88;56.54
76074;BME280;64776;42.636;24.358;2023-04-24T12:31:23;89711.25;;;14.85;56.37
76074;BME280;64776;42.636;24.358;2023-04-24T12:34:25;89710.69;;;14.73;56.57
76074;BME280;64776;42.636;24.358;2023-04-24T12:37:32;89707.69;;;14.77;57.29
76074;BME280;64776;42.636;24.358;2023-04-24T12:40:33;89701.31;;;14.61;57.43
76074;BME280;64776;42.636;24.358;2023-04-24T12:43:35;89698.22;;;14.51;58.05
76074;BME280;64776;42.636;24.358;2023-04-24T12:46:37;89689.22;;;14.25;59.42
76074;BME280;64776;42.636;24.358;2023-04-24T12:49:38;89698.25;;;14.03;60.71
76074;BME280;64776;42.636;24.358;2023-04-24T12:52:39;89687.34;;;13.96;61.11
76074;BME280;64776;42.636;24.358;2023-04-24T12:55:39;89695.59;;;13.73;61.52
76074;BME280;64776;42.636;24.358;2023-04-24T12:58:40;89676.97;;;13.86;61.66
76074;BME280;64776;42.636;24.358;2023-04-24T13:01:42;89686.41;;;14.17;63.00
76074;BME280;64776;42.636;24.358;2023-04-24T13:04:44;89683.72;;;14.17;62.08
76074;BME280;64776;42.636;24.358;2023-04-24T13:07:45;89687.16;;;14.12;61.46
76074;BME280;64776;42.636;24.358;2023-04-24T13:10:46;89703.09;;;14.53;61.45
76074;BME280;64776;42.636;24.358;2023-04-24T13:13:47;89688.25;;;14.71;61.11
76074;BME280;64776;42.636;24.358;2023-04-24T13:16:49;89675.53;;;14.52;60.65
76074;BME280;64776;42.636;24.358;2023-04-24T13:19:51;89667.72;;;14.30;61.09
76074;BME280;64776;42.636;24.358;2023-04-24T13:22:52;89661.47;;;13.98;62.10
76074;BME280;64776;42.636;24.358;2023-04-24T13:25:53;89679.81;;;13.64;63.17
76074;BME280;64776;42.636;24.358;2023-04-24T13:28:54;89693.69;;;13.39;63.84
76074;BME280;64776;42.636;24.358;2023-04-24T13:31:56;89698.63;;;13.29;64.60
76074;BME280;64776;42.636;24.358;2023-04-24T13:34:57;89705.38;;;13.00;66.63
76074;BME280;64776;42.636;24.358;2023-04-24T13:37:58;89725.16;;;12.86;67.04
76074;BME280;64776;42.636;24.358;2023-04-24T13:40:59;89736.66;;;12.81;68.85
76074;BME280;64776;42.636;24.358;2023-04-24T13:44:01;89746.38;;;12.79;71.60
76074;BME280;64776;42.636;24.358;2023-04-24T13:47:03;89751.78;;;12.68;72.48
76074;BME280;64776;42.636;24.358;2023-04-24T13:50:05;89774.22;;;12.54;73.63
76074;BME280;64776;42.636;24.358;2023-04-24T13:53:06;89748.34;;;11.93;68.65
76074;BME280;64776;42.636;24.358;2023-04-24T13:56:06;89730.38;;;11.61;71.67
76074;BME280;64776;42.636;24.358;2023-04-24T13:59:07;89734.50;;;11.56;73.08
76074;BME280;64776;42.636;24.358;2023-04-24T14:02:34;89738.88;;;11.26;75.49
76074;BME280;64776;42.636;24.358;2023-04-24T14:05:35;89735.72;;;11.27;78.18
76074;BME280;64776;42.636;24.358;2023-04-24T14:08:36;89720.94;;;11.43;78.12
76074;BME280;64776;42.636;24.358;2023-04-24T14:11:37;89724.31;;;11.71;77.95
76074;BME280;64776;42.636;24.358;2023-04-24T14:14:37;89715.31;;;11.91;77.09
76074;BME280;64776;42.636;24.358;2023-04-24T14:17:40;89714.06;;;11.97;77.94
76074;BME280;64776;42.636;24.358;2023-04-24T14:20:40;89707.06;;;11.89;80.22
76074;BME280;64776;42.636;24.358;2023-04-24T14:23:41;89702.13;;;12.15;79.36
76074;BME280;64776;42.636;24.358;2023-04-24T14:26:42;89694.72;;;12.43;77.72
76074;BME280;64776;42.636;24.358;2023-04-24T14:29:43;89687.38;;;12.49;76.01
76074;BME280;64776;42.636;24.358;2023-04-24T14:32:45;89686.94;;;12.86;74.87
76074;BME280;64776;42.636;24.358;2023-04-24T14:35:46;89673.53;;;12.91;74.81
76074;BME280;64776;42.636;24.358;2023-04-24T14:38:47;89667.19;;;12.94;74.62
76074;BME280;64776;42.636;24.358;2023-04-24T14:41:48;89662.66;;;12.78;75.01
76074;BME280;64776;42.636;24.358;2023-04-24T14:44:48;89663.34;;;12.84;76.59
76074;BME280;64776;42.636;24.358;2023-04-24T14:47:51;89666.66;;;13.01;74.95
76074;BME280;64776;42.636;24.358;2023-04-24T14:50:52;89670.78;;;13.08;74.90
76074;BME280;64776;42.636;24.358;2023-04-24T14:53:53;89650.09;;;13.38;74.57
76074;BME280;64776;42.636;24.358;2023-04-24T14:56:54;89648.38;;;13.41;74.61
76074;BME280;64776;42.636;24.358;2023-04-24T14:59:55;89640.31;;;13.41;71.92
76074;BME280;64776;42.636;24.358;2023-04-24T15:02:57;89627.28;;;13.56;74.81
76074;BME280;64776;42.636;24.358;2023-04-24T15:05:58;89625.88;;;13.73;71.97
76074;BME280;64776;42.636;24.358;2023-04-24T15:08:59;89638.09;;;13.93;71.57
76074;BME280;64776;42.636;24.358;2023-04-24T15:11:59;89637.09;;;13.96;70.61
76074;BME280;64776;42.636;24.358;2023-04-24T15:15:00;89637.56;;;14.00;70.64
76074;BME280;64776;42.636;24.358;2023-04-24T15:18:04;89636.78;;;14.05;69.63
76074;BME280;64776;42.636;24.358;2023-04-24T15:21:05;89627.72;;;13.84;68.82
76074;BME280;64776;42.636;24.358;2023-04-24T15:24:06;89638.69;;;13.86;68.52
76074;BME280;64776;42.636;24.358;2023-04-24T15:27:09;89625.94;;;13.92;68.38
76074;BME280;64776;42.636;24.358;2023-04-24T15:30:11;89629.84;;;13.43;70.26
76074;BME280;64776;42.636;24.358;2023-04-24T15:33:14;89627.97;;;13.32;72.23
76074;BME280;64776;42.636;24.358;2023-04-24T15:36:15;89627.47;;;13.34;73.56
76074;BME280;64776;42.636;24.358;2023-04-24T15:39:16;89623.44;;;13.51;74.27
76074;BME280;64776;42.636;24.358;2023-04-24T15:42:17;89619.38;;;13.10;73.24
76074;BME280;64776;42.636;24.358;2023-04-24T15:45:17;89625.22;;;12.73;75.12
76074;BME280;64776;42.636;24.358;2023-04-24T15:48:23;89628.97;;;12.53;74.38
76074;BME280;64776;42.636;24.358;2023-04-24T15:51:24;89618.28;;;12.53;75.30
76074;BME280;64776;42.636;24.358;2023-04-24T15:54:25;89615.31;;;12.62;75.77
76074;BME280;64776;42.636;24.358;2023-04-24T15:57:26;89611.13;;;12.72;74.48
76074;BME280;64776;42.636;24.358;2023-04-24T16:00:27;89615.47;;;12.75;74.58